Time;durP1;ratioP1;P1;durP2;ratioP2;P2;SDS_P1;SDS_P2;PMS_P1;PMS_P2;Temp;Humidity;BMP_temperature;BMP_pressure;BME280_temperature;BME280_humidity;BME280_pressure;Samples;Min_cycle;Max_cycle;Signal;HPM_P1;HPM_P2
2022/02/18 00:00:20;;;;;;;35.35;8.38;;;;;;;5.79;100.00;100955.09;5070075;28;20036;-74
2022/02/18 00:02:46;;;;;;;32.70;7.45;;;;;;;5.78;100.00;100947.19;5070414;28;20076;-75
2022/02/18 00:05:11;;;;;;;30.20;7.43;;;;;;;5.80;100.00;100953.41;5070150;28;20116;-74
2022/02/18 00:07:36;;;;;;;31.98;7.35;;;;;;;5.84;100.00;100947.34;5070404;28;20020;-75
2022/02/18 00:10:03;;;;;;;30.13;7.47;;;;;;;5.86;100.00;100943.91;5070699;28;20024;-75
2022/02/18 00:12:29;;;;;;;30.67;6.97;;;;;;;5.92;100.00;100945.81;5070395;28;20615;-74
2022/02/18 00:14:54;;;;;;;31.17;7.18;;;;;;;5.90;100.00;100948.41;5069887;28;20297;-75
2022/02/18 00:17:19;;;;;;;31.50;7.18;;;;;;;5.87;100.00;100936.97;5073082;28;20030;-75
2022/02/18 00:19:45;;;;;;;32.35;7.20;;;;;;;5.84;100.00;100929.88;5074365;28;20028;-74
2022/02/18 00:22:10;;;;;;;35.92;7.30;;;;;;;5.85;100.00;100938.63;5074331;28;20162;-75
2022/02/18 00:24:36;;;;;;;33.20;7.22;;;;;;;5.80;100.00;100935.91;5073974;28;20040;-75
2022/02/18 00:27:01;;;;;;;32.08;6.68;;;;;;;5.83;100.00;100925.47;5074213;28;20036;-75
2022/02/18 00:29:26;;;;;;;32.13;6.88;;;;;;;5.86;100.00;100930.81;5074162;28;20033;-75
2022/02/18 00:31:52;;;;;;;31.58;6.57;;;;;;;5.83;100.00;100922.84;5073807;28;20025;-75
2022/02/18 00:34:18;;;;;;;31.27;6.18;;;;;;;5.86;100.00;100919.44;5073443;28;20459;-75
2022/02/18 00:36:43;;;;;;;30.73;6.32;;;;;;;5.89;100.00;100909.00;5073858;28;20105;-75
2022/02/18 00:39:08;;;;;;;31.50;6.35;;;;;;;5.89;100.00;100920.38;5073793;28;20028;-75
2022/02/18 00:41:34;;;;;;;29.90;6.05;;;;;;;5.92;100.00;100909.94;5073963;28;20036;-75
2022/02/18 00:43:59;;;;;;;31.17;6.50;;;;;;;5.98;100.00;100913.63;5073942;28;20070;-74
2022/02/18 00:46:25;;;;;;;28.05;6.07;;;;;;;5.94;100.00;100900.41;5073702;28;20032;-74
2022/02/18 00:48:50;;;;;;;27.63;5.95;;;;;;;5.93;100.00;100901.25;5073943;28;20050;-75
2022/02/18 00:51:15;;;;;;;30.13;6.10;;;;;;;5.97;100.00;100911.81;5072686;28;20036;-75
2022/02/18 00:53:41;;;;;;;28.42;5.63;;;;;;;6.00;100.00;100902.31;5073230;28;20016;-75
2022/02/18 00:56:07;;;;;;;28.35;5.45;;;;;;;6.06;100.00;100906.84;5073548;28;20181;-75
2022/02/18 00:58:32;;;;;;;28.63;5.25;;;;;;;6.02;100.00;100903.22;5073558;28;20033;-74
2022/02/18 01:00:58;;;;;;;27.40;5.90;;;;;;;6.03;100.00;100898.84;5073206;28;20032;-75
2022/02/18 01:03:24;;;;;;;28.42;5.47;;;;;;;6.08;100.00;100892.00;5072542;28;20028;-75
2022/02/18 01:05:49;;;;;;;29.23;5.85;;;;;;;6.08;100.00;100892.00;5073840;28;20032;-75
2022/02/18 01:08:15;;;;;;;29.13;5.50;;;;;;;6.08;100.00;100876.25;5073211;28;20463;-75
2022/02/18 01:10:41;;;;;;;26.00;5.00;;;;;;;6.10;100.00;100887.66;5073351;28;20032;-75
2022/02/18 01:13:06;;;;;;;27.27;5.20;;;;;;;6.15;100.00;100872.91;5073251;28;20024;-75
2022/02/18 01:15:32;;;;;;;30.35;5.70;;;;;;;6.21;100.00;100867.78;5072995;28;20081;-74
2022/02/18 01:17:57;;;;;;;29.10;6.28;;;;;;;6.19;100.00;100864.25;5073321;28;20036;-74
2022/02/18 01:20:22;;;;;;;27.95;5.53;;;;;;;6.15;100.00;100857.16;5066631;28;20032;-75
2022/02/18 01:22:48;;;;;;;29.38;5.72;;;;;;;6.17;100.00;100852.81;5071747;28;20028;-75
2022/02/18 01:25:15;;;;;;;30.55;5.78;;;;;;;6.16;100.00;100864.19;5071226;28;20032;-75
2022/02/18 01:27:41;;;;;;;30.13;6.22;;;;;;;6.25;100.00;100861.78;5072778;28;20082;-75
2022/02/18 01:30:08;;;;;;;30.45;6.00;;;;;;;6.18;100.00;100858.97;5073000;28;20020;-75
2022/02/18 01:32:33;;;;;;;30.65;5.90;;;;;;;6.19;100.00;100856.38;5073204;28;20369;-75
2022/02/18 01:34:59;;;;;;;33.15;5.82;;;;;;;6.18;100.00;100854.59;5072488;28;20382;-75
2022/02/18 01:37:25;;;;;;;30.27;6.03;;;;;;;6.23;100.00;100857.31;5072050;28;20052;-75
2022/02/18 01:39:50;;;;;;;33.40;6.18;;;;;;;6.19;100.00;100853.75;5072796;28;20032;-75
2022/02/18 01:42:16;;;;;;;32.65;6.68;;;;;;;6.20;100.00;100854.63;5072626;28;20032;-75
2022/02/18 01:44:44;;;;;;;32.53;6.28;;;;;;;6.18;100.00;100833.59;5072491;28;20436;-75
2022/02/18 01:47:15;;;;;;;32.85;6.25;;;;;;;6.25;100.00;100845.13;5072750;28;20039;-75
2022/02/18 01:49:45;;;;;;;31.17;6.00;;;;;;;6.27;100.00;100828.53;5071254;28;20127;-75
2022/02/18 01:52:11;;;;;;;29.05;6.00;;;;;;;6.32;100.00;100838.25;5072547;28;20024;-76
2022/02/18 01:54:37;;;;;;;34.58;6.53;;;;;;;6.32;100.00;100830.38;5072005;28;20568;-76
2022/02/18 01:57:03;;;;;;;30.48;5.80;;;;;;;6.39;100.00;100827.03;5072744;28;20033;-76
2022/02/18 01:59:29;;;;;;;31.65;6.18;;;;;;;6.38;100.00;100814.78;5072409;28;20108;-75
2022/02/18 02:01:58;;;;;;;35.42;6.55;;;;;;;6.37;100.00;100813.00;5072607;28;20111;-75
2022/02/18 02:04:25;;;;;;;32.33;6.28;;;;;;;6.39;100.00;100795.53;5072253;28;20390;-76
2022/02/18 02:06:51;;;;;;;32.15;6.25;;;;;;;6.31;100.00;100786.63;5072186;28;20028;-76
2022/02/18 02:09:17;;;;;;;29.63;6.15;;;;;;;6.35;100.00;100784.09;5071827;28;20464;-75
2022/02/18 02:11:42;;;;;;;36.83;6.80;;;;;;;6.35;100.00;100793.69;5072167;28;20055;-76
2022/02/18 02:14:08;;;;;;;34.20;6.55;;;;;;;6.35;100.00;100793.69;5071664;28;20089;-75
2022/02/18 02:16:33;;;;;;;35.10;6.95;;;;;;;6.40;100.00;100797.31;5072296;28;20029;-75
2022/02/18 02:18:58;;;;;;;35.25;6.75;;;;;;;6.39;100.00;100787.66;5072134;28;20073;-75
2022/02/18 02:21:26;;;;;;;31.33;6.07;;;;;;;6.42;100.00;100791.25;5072226;28;20379;-76
2022/02/18 02:23:53;;;;;;;35.95;6.63;;;;;;;6.40;100.00;100781.56;5070693;28;20028;-76
2022/02/18 02:26:19;;;;;;;38.40;7.25;;;;;;;6.40;100.00;100773.69;5071740;28;20047;-76
2022/02/18 02:28:44;;;;;;;33.65;7.10;;;;;;;6.31;100.00;100763.00;5070616;28;20031;-76
2022/02/18 02:31:09;;;;;;;37.08;7.72;;;;;;;6.38;100.00;100751.78;5072322;28;20532;-75
2022/02/18 02:33:35;;;;;;;33.17;6.70;;;;;;;6.41;100.00;100746.56;5071617;28;20413;-75
2022/02/18 02:36:00;;;;;;;36.83;7.57;;;;;;;6.39;100.00;100743.91;5071833;28;20020;-75
2022/02/18 02:38:25;;;;;;;37.63;7.00;;;;;;;6.36;100.00;100735.06;5071329;28;20045;-75
2022/02/18 02:40:51;;;;;;;34.92;6.95;;;;;;;6.35;100.00;100731.56;5070583;28;20052;-76
2022/02/18 02:43:16;;;;;;;39.17;7.88;;;;;;;6.37;100.00;100728.97;5071647;28;20077;-75
2022/02/18 02:45:42;;;;;;;36.35;6.90;;;;;;;6.34;100.00;100708.78;5071589;28;20020;-75
2022/02/18 02:48:07;;;;;;;36.55;7.38;;;;;;;6.38;100.00;100701.88;5071864;28;20032;-75
2022/02/18 02:50:33;;;;;;;38.25;7.07;;;;;;;6.38;100.00;100701.88;5071661;28;20514;-75
2022/02/18 02:52:58;;;;;;;34.70;7.18;;;;;;;6.30;100.00;100685.94;5071018;28;20036;-75
2022/02/18 02:55:24;;;;;;;41.53;7.30;;;;;;;6.28;100.00;100683.31;5070791;28;20024;-75
2022/02/18 02:57:50;;;;;;;36.38;7.13;;;;;;;6.33;100.00;100674.63;5071234;28;20037;-75
2022/02/18 03:00:16;;;;;;;34.90;6.80;;;;;;;6.33;100.00;100659.75;5071315;28;20109;-76
2022/02/18 03:02:43;;;;;;;38.40;7.05;;;;;;;6.39;100.00;100657.28;5068400;28;20031;-75
2022/02/18 03:05:09;;;;;;;36.95;6.95;;;;;;;6.33;100.00;100658.88;5070824;28;20058;-76
2022/02/18 03:07:35;;;;;;;39.30;7.43;;;;;;;6.30;100.00;100664.06;5071246;28;20029;-75
2022/02/18 03:10:01;;;;;;;37.22;7.18;;;;;;;6.33;100.00;100658.88;5070981;28;20024;-75
2022/02/18 03:12:26;;;;;;;41.33;6.85;;;;;;;6.28;100.00;100658.81;5070538;28;20412;-75
2022/02/18 03:14:51;;;;;;;38.20;8.02;;;;;;;6.30;100.00;100645.69;5070487;28;20032;-75
2022/02/18 03:17:17;;;;;;;39.38;7.72;;;;;;;6.28;100.00;100638.66;5071167;28;20032;-75
2022/02/18 03:19:42;;;;;;;39.97;7.50;;;;;;;6.32;100.00;100633.47;5071060;28;20463;-75
2022/02/18 03:22:08;;;;;;;40.75;7.00;;;;;;;6.25;100.00;100616.75;5071037;28;20028;-75
2022/02/18 03:24:34;;;;;;;37.30;7.10;;;;;;;6.26;100.00;100610.63;5069950;28;20067;-75
2022/02/18 03:26:59;;;;;;;37.58;6.97;;;;;;;6.28;100.00;100609.78;5070994;28;20037;-75
2022/02/18 03:29:26;;;;;;;37.03;6.82;;;;;;;6.27;100.00;100597.50;5070585;28;20506;-75
2022/02/18 03:31:52;;;;;;;35.55;7.45;;;;;;;6.23;100.00;100582.59;5070776;28;20033;-76
2022/02/18 03:34:17;;;;;;;38.55;7.28;;;;;;;6.23;100.00;100573.81;5069994;28;20031;-77
2022/02/18 03:36:42;;;;;;;39.63;7.75;;;;;;;6.19;100.00;100571.97;5070489;28;20021;-75
2022/02/18 03:39:09;;;;;;;40.83;7.00;;;;;;;6.23;100.00;100574.72;5069315;28;20387;-76
2022/02/18 03:41:35;;;;;;;35.00;6.60;;;;;;;6.25;100.00;100577.38;5070823;28;20085;-76
2022/02/18 03:44:00;;;;;;;37.42;7.20;;;;;;;6.17;100.00;100579.84;5069526;28;20035;-76
2022/02/18 03:46:26;;;;;;;37.13;7.32;;;;;;;6.15;100.00;100560.56;5070797;28;20020;-77
2022/02/18 03:48:51;;;;;;;38.83;7.35;;;;;;;6.08;100.00;100558.69;5069044;28;20403;-76
2022/02/18 03:51:17;;;;;;;35.15;6.97;;;;;;;6.14;100.00;100574.53;5069854;28;20471;-76
2022/02/18 03:53:43;;;;;;;38.38;7.20;;;;;;;6.17;100.00;100579.84;5070204;28;20142;-75
2022/02/18 03:56:08;;;;;;;39.92;7.40;;;;;;;6.27;100.00;100566.00;5070304;28;20471;-75
2022/02/18 03:58:34;;;;;;;36.72;6.80;;;;;;;6.21;100.00;100565.91;5070225;28;20046;-76
2022/02/18 04:00:59;;;;;;;35.67;6.60;;;;;;;6.17;100.00;100550.09;5070879;28;20154;-76
2022/02/18 04:03:25;;;;;;;39.72;7.88;;;;;;;6.18;100.00;100538.75;5070101;28;20033;-76
2022/02/18 04:05:50;;;;;;;40.10;7.35;;;;;;;6.20;100.00;100532.63;5069961;28;20505;-75
2022/02/18 04:08:15;;;;;;;35.72;7.03;;;;;;;6.19;100.00;100515.13;5070614;28;20037;-76
2022/02/18 04:10:41;;;;;;;39.85;6.47;;;;;;;6.13;100.00;100507.16;5070377;28;20051;-75
2022/02/18 04:13:06;;;;;;;35.38;7.13;;;;;;;6.14;100.00;100498.41;5070613;28;20518;-75
2022/02/18 04:15:33;;;;;;;42.40;7.88;;;;;;;6.12;100.00;100481.78;5069920;28;20036;-75
2022/02/18 04:17:58;;;;;;;37.80;7.30;;;;;;;6.09;100.00;100477.34;5069696;28;20438;-75
2022/02/18 04:20:23;;;;;;;44.75;8.30;;;;;;;6.12;100.00;100463.41;5070374;28;20028;-75
2022/02/18 04:22:49;;;;;;;35.70;6.60;;;;;;;6.09;100.00;100450.22;5069963;28;20054;-75
2022/02/18 04:25:14;;;;;;;35.72;6.60;;;;;;;6.18;100.00;100445.13;5069722;28;20025;-75
2022/02/18 04:27:40;;;;;;;38.00;7.50;;;;;;;6.20;100.00;100442.50;5067380;28;20096;-75
2022/02/18 04:30:06;;;;;;;37.85;7.90;;;;;;;6.17;100.00;100426.72;5070207;28;20033;-75
2022/02/18 04:32:32;;;;;;;37.17;7.85;;;;;;;6.15;100.00;100413.56;5070110;28;20500;-75
2022/02/18 04:34:57;;;;;;;34.45;6.80;;;;;;;6.20;100.00;100427.63;5069605;28;20056;-75
2022/02/18 04:37:23;;;;;;;34.22;6.88;;;;;;;6.17;100.00;100426.72;5069878;28;20067;-75
2022/02/18 04:39:49;;;;;;;37.42;7.47;;;;;;;6.19;100.00;100404.91;5069995;28;20506;-75
2022/02/18 04:42:15;;;;;;;36.33;7.00;;;;;;;6.16;100.00;100393.44;5070548;28;20033;-75
2022/02/18 04:44:40;;;;;;;36.38;7.07;;;;;;;6.16;100.00;100378.59;5069172;28;20032;-76
2022/02/18 04:47:05;;;;;;;32.78;6.63;;;;;;;6.22;100.00;100376.06;5070107;28;20036;-75
2022/02/18 04:49:31;;;;;;;36.75;7.22;;;;;;;6.21;100.00;100369.03;5069631;28;20035;-75
2022/02/18 04:51:56;;;;;;;36.45;7.35;;;;;;;6.19;100.00;100357.66;5070328;28;20021;-75
2022/02/18 04:54:22;;;;;;;35.88;7.32;;;;;;;6.22;100.00;100351.56;5069692;28;20021;-75
2022/02/18 04:56:49;;;;;;;33.38;6.70;;;;;;;6.26;100.00;100356.88;5069851;28;20028;-75
2022/02/18 04:59:16;;;;;;;37.55;7.25;;;;;;;6.26;100.00;100348.09;5070206;28;20025;-75
2022/02/18 05:01:42;;;;;;;36.50;7.28;;;;;;;6.24;100.00;100341.97;5069844;28;20025;-75
2022/02/18 05:04:08;;;;;;;38.90;6.70;;;;;;;6.23;100.00;100327.97;5073553;28;20020;-75
2022/02/18 05:06:33;;;;;;;32.40;6.35;;;;;;;6.21;100.00;100321.78;5073050;28;20033;-75
2022/02/18 05:08:58;;;;;;;32.55;6.28;;;;;;;6.20;100.00;100312.16;5073545;28;20116;-75
2022/02/18 05:11:24;;;;;;;36.65;6.53;;;;;;;6.20;100.00;100304.28;5073246;28;20112;-75
2022/02/18 05:13:49;;;;;;;37.17;6.93;;;;;;;6.19;100.00;100307.78;5072803;28;20111;-75
2022/02/18 05:16:14;;;;;;;31.33;6.63;;;;;;;6.20;100.00;100288.53;5073076;28;20021;-75
2022/02/18 05:18:39;;;;;;;32.47;6.63;;;;;;;6.22;100.00;100289.44;5073270;28;20078;-74
2022/02/18 05:21:06;;;;;;;34.80;6.40;;;;;;;6.22;100.00;100278.94;5073090;28;20086;-75
2022/02/18 05:23:32;;;;;;;32.45;6.00;;;;;;;6.20;100.00;100278.03;5073098;28;20074;-75
2022/02/18 05:25:57;;;;;;;33.65;6.43;;;;;;;6.20;100.00;100275.41;5072857;28;20475;-74
2022/02/18 05:28:22;;;;;;;29.60;5.60;;;;;;;6.26;100.00;100272.88;5073140;28;20421;-75
2022/02/18 05:30:48;;;;;;;32.70;6.18;;;;;;;6.31;100.00;100275.56;5073297;28;20094;-75
2022/02/18 05:33:13;;;;;;;30.10;5.70;;;;;;;6.42;100.00;100262.53;5072713;28;20486;-75
2022/02/18 05:35:40;;;;;;;29.90;5.88;;;;;;;6.41;100.00;100226.66;5072870;28;20078;-75
2022/02/18 05:38:05;;;;;;;30.63;6.15;;;;;;;6.42;100.00;100216.19;5072832;28;20048;-75
2022/02/18 05:40:31;;;;;;;30.55;5.80;;;;;;;6.44;100.00;100224.94;5072641;28;20028;-75
2022/02/18 05:42:56;;;;;;;28.17;4.95;;;;;;;6.52;100.00;100225.03;5072828;28;20483;-75
2022/02/18 05:45:22;;;;;;;29.55;5.53;;;;;;;6.57;100.00;100223.34;5072422;28;20158;-75
2022/02/18 05:47:47;;;;;;;29.83;5.88;;;;;;;6.57;100.00;100197.09;5072794;28;20029;-75
2022/02/18 05:50:13;;;;;;;30.60;5.95;;;;;;;6.52;100.00;100206.63;5072694;28;20028;-75
2022/02/18 05:52:39;;;;;;;30.80;5.80;;;;;;;6.32;100.00;100195.03;5072162;28;20114;-76
2022/02/18 05:55:05;;;;;;;34.90;6.38;;;;;;;6.17;100.00;100173.00;5072324;28;20033;-75
2022/02/18 05:57:31;;;;;;;31.10;5.78;;;;;;;6.12;100.00;100179.97;5072369;28;20028;-75
2022/02/18 05:59:56;;;;;;;30.75;5.78;;;;;;;6.10;100.00;100158.03;5072567;28;20024;-75
2022/02/18 06:02:21;;;;;;;30.58;5.72;;;;;;;6.03;100.00;100150.97;5072579;28;20028;-75
2022/02/18 06:04:47;;;;;;;33.67;6.03;;;;;;;5.99;100.00;100162.31;5072054;28;20471;-75
2022/02/18 06:07:15;;;;;;;31.95;5.90;;;;;;;5.94;100.00;100155.22;5072082;28;20024;-75
2022/02/18 06:09:40;;;;;;;33.60;6.07;;;;;;;5.99;100.00;100136.94;5072382;28;20036;-76
2022/02/18 06:12:06;;;;;;;33.70;6.18;;;;;;;5.96;100.00;100142.13;5072424;28;20032;-74
2022/02/18 06:14:31;;;;;;;35.58;6.35;;;;;;;5.83;100.00;100127.09;5070662;28;20226;-75
2022/02/18 06:16:56;;;;;;;33.83;5.85;;;;;;;5.88;100.00;100114.91;5072170;28;20028;-75
2022/02/18 06:19:22;;;;;;;39.47;6.65;;;;;;;5.76;100.00;100100.78;5072314;28;20395;-75
2022/02/18 06:21:47;;;;;;;38.55;6.50;;;;;;;5.75;100.00;100092.88;5072032;28;20025;-73
2022/02/18 06:24:12;;;;;;;39.60;6.78;;;;;;;5.70;100.00;100078.84;5069906;28;20494;-73
2022/02/18 06:26:38;;;;;;;36.50;6.47;;;;;;;5.73;100.00;100071.03;5071643;28;20028;-74
2022/02/18 06:29:04;;;;;;;40.28;7.03;;;;;;;5.70;100.00;100058.75;5071765;28;20035;-75
2022/02/18 06:31:29;;;;;;;35.22;6.60;;;;;;;5.72;100.00;100069.25;5071877;28;20035;-73
2022/02/18 06:33:55;;;;;;;34.33;6.28;;;;;;;5.75;100.00;100043.06;5071548;28;20108;-73
2022/02/18 06:36:21;;;;;;;38.88;7.35;;;;;;;5.76;100.00;100045.69;5071661;28;20048;-71
2022/02/18 06:38:46;;;;;;;35.55;6.63;;;;;;;5.74;100.00;100042.19;5071486;28;20567;-75
2022/02/18 06:41:12;;;;;;;33.17;6.43;;;;;;;5.77;100.00;100036.09;5071607;28;20021;-75
2022/02/18 06:43:38;;;;;;;36.25;6.65;;;;;;;5.76;100.00;100022.09;5070962;28;20025;-75
2022/02/18 06:46:04;;;;;;;32.10;6.13;;;;;;;5.78;100.00;100001.13;5071276;28;20029;-72
2022/02/18 06:48:29;;;;;;;36.83;6.72;;;;;;;5.90;100.00;100003.88;5071132;28;20399;-71
2022/02/18 06:50:54;;;;;;;34.45;6.80;;;;;;;5.92;100.00;100002.16;5071756;28;20040;-72
2022/02/18 06:53:20;;;;;;;38.20;8.73;;;;;;;5.98;100.00;99995.25;5070076;28;20040;-76
2022/02/18 06:55:46;;;;;;;34.58;7.35;;;;;;;5.97;100.00;99973.38;5069477;28;20040;-76
2022/02/18 06:58:11;;;;;;;32.85;6.63;;;;;;;6.09;100.00;99972.63;5052745;28;20039;-76
2022/02/18 07:00:37;;;;;;;36.20;7.60;;;;;;;6.05;100.00;99949.84;5069212;28;20040;-75
2022/02/18 07:03:03;;;;;;;34.88;7.35;;;;;;;6.09;100.00;99951.63;5071131;28;20055;-74
2022/02/18 07:05:28;;;;;;;35.55;7.95;;;;;;;6.15;100.00;99945.56;5069999;28;20082;-74
2022/02/18 07:07:54;;;;;;;37.85;7.47;;;;;;;6.16;100.00;99927.19;5071391;28;20518;-73
2022/02/18 07:10:20;;;;;;;34.67;7.68;;;;;;;6.16;100.00;99918.41;5070719;28;20032;-73
2022/02/18 07:12:45;;;;;;;35.67;7.97;;;;;;;6.23;100.00;99933.34;5070876;28;20056;-72
2022/02/18 07:15:11;;;;;;;35.00;9.10;;;;;;;6.20;100.00;99936.81;5071033;28;20021;-74
2022/02/18 07:17:36;;;;;;;36.78;8.75;;;;;;;6.27;100.00;99940.38;5070706;28;20074;-74
2022/02/18 07:20:06;;;;;;;36.22;9.60;;;;;;;6.27;100.00;99920.25;5070890;28;20020;-74
2022/02/18 07:22:33;;;;;;;33.05;9.52;;;;;;;6.28;100.00;99901.00;5071044;28;20036;-73
2022/02/18 07:24:59;;;;;;;30.90;9.43;;;;;;;6.35;100.00;99898.44;5070376;28;20059;-73
2022/02/18 07:27:24;;;;;;;37.55;9.82;;;;;;;6.37;100.00;99899.34;5070419;28;20479;-76
2022/02/18 07:29:49;;;;;;;34.65;9.63;;;;;;;6.37;100.00;99894.94;5070259;28;20025;-76
2022/02/18 07:32:15;;;;;;;35.35;10.77;;;;;;;6.42;100.00;99884.47;5070791;28;20054;-74
2022/02/18 07:34:40;;;;;;;35.28;10.23;;;;;;;6.44;100.00;99881.00;5070934;28;20069;-74
2022/02/18 07:37:06;;;;;;;34.45;10.82;;;;;;;6.47;100.00;99874.88;5070289;28;20588;-77
2022/02/18 07:39:31;;;;;;;37.72;11.43;;;;;;;6.52;100.00;99862.66;5069870;28;20352;-73
2022/02/18 07:41:56;;;;;;;36.67;11.73;;;;;;;6.52;100.00;99867.91;5070595;28;20044;-76
2022/02/18 07:44:22;;;;;;;35.28;11.82;;;;;;;6.60;100.00;99846.94;5069913;28;20111;-72
2022/02/18 07:46:48;;;;;;;37.05;12.65;;;;;;;6.63;100.00;99847.81;5069429;28;20021;-75
2022/02/18 07:49:14;;;;;;;35.95;12.15;;;;;;;6.67;100.00;99829.44;5070836;28;20026;-75
2022/02/18 07:51:40;;;;;;;41.58;13.82;;;;;;;6.69;100.00;99825.09;5070159;28;20030;-75
2022/02/18 07:54:06;;;;;;;37.92;12.85;;;;;;;6.69;100.00;99827.72;5068894;28;20029;-75
2022/02/18 07:56:32;;;;;;;37.03;13.18;;;;;;;6.81;100.00;99822.50;5070305;28;20028;-75
2022/02/18 07:58:57;;;;;;;36.67;12.02;;;;;;;6.88;100.00;99807.66;5070374;28;20043;-75
2022/02/18 08:01:23;;;;;;;31.38;12.00;;;;;;;6.95;100.00;99799.78;5069859;28;20029;-75
2022/02/18 08:03:49;;;;;;;31.40;11.32;;;;;;;6.96;100.00;99803.28;5070311;28;20360;-76
2022/02/18 08:06:15;;;;;;;31.73;11.35;;;;;;;7.00;100.00;99804.19;5070123;28;20538;-75
2022/02/18 08:08:42;;;;;;;33.33;10.88;;;;;;;7.08;100.00;99781.44;5069968;28;20036;-75
2022/02/18 08:11:16;;;;;;;28.55;9.43;;;;;;;7.14;100.00;99768.28;5070366;28;20383;-75
2022/02/18 08:13:42;;;;;;;28.65;9.38;;;;;;;7.16;100.00;99777.03;5068944;28;20029;-75
2022/02/18 08:16:08;;;;;;;31.25;8.82;;;;;;;7.25;100.00;99770.91;5069989;28;20025;-76
2022/02/18 08:18:34;;;;;;;29.38;8.13;;;;;;;7.33;100.00;99754.28;5069909;28;20041;-76
2022/02/18 08:21:00;;;;;;;28.40;8.10;;;;;;;7.29;100.00;99746.38;5070308;28;20032;-75
2022/02/18 08:23:25;;;;;;;28.50;8.27;;;;;;;7.30;100.00;99742.88;5070111;28;20031;-76
2022/02/18 08:25:51;;;;;;;28.95;8.30;;;;;;;7.37;100.00;99731.50;5069928;28;20039;-76
2022/02/18 08:28:17;;;;;;;28.85;8.20;;;;;;;7.38;100.00;99749.00;5069834;28;20021;-76
2022/02/18 08:30:44;;;;;;;27.90;7.93;;;;;;;7.48;100.00;99740.25;5068900;28;20131;-75
2022/02/18 08:33:10;;;;;;;30.63;8.23;;;;;;;7.46;100.00;99727.97;5070260;28;20037;-75
2022/02/18 08:35:35;;;;;;;27.00;7.30;;;;;;;7.52;100.00;99741.13;5069439;28;20035;-75
2022/02/18 08:38:01;;;;;;;25.35;7.72;;;;;;;7.55;100.00;99725.34;5071833;28;20056;-76
2022/02/18 08:40:27;;;;;;;23.23;6.47;;;;;;;7.67;100.00;99724.44;5074002;28;20116;-75
2022/02/18 08:42:52;;;;;;;27.95;7.28;;;;;;;7.69;100.00;99712.19;5073982;28;20566;-75
2022/02/18 08:45:18;;;;;;;23.80;6.70;;;;;;;7.71;100.00;99707.78;5073484;28;20111;-75
2022/02/18 08:47:43;;;;;;;23.85;7.10;;;;;;;7.75;100.00;99692.88;5073859;28;20025;-75
2022/02/18 08:50:10;;;;;;;22.58;6.55;;;;;;;7.76;100.00;99676.19;5072269;28;20505;-76
2022/02/18 08:52:36;;;;;;;23.58;6.63;;;;;;;7.80;100.00;99691.97;5073716;28;20067;-75
2022/02/18 08:55:03;;;;;;;21.30;5.97;;;;;;;7.88;100.00;99673.53;5073709;28;20067;-75
2022/02/18 08:57:31;;;;;;;22.75;5.82;;;;;;;7.96;100.00;99671.75;5073412;28;20032;-76
2022/02/18 08:59:56;;;;;;;21.25;6.10;;;;;;;7.98;100.00;99662.09;5073466;28;20025;-75
2022/02/18 09:02:24;;;;;;;18.85;5.50;;;;;;;8.05;100.00;99659.44;5073514;28;20059;-75
2022/02/18 09:04:54;;;;;;;19.38;5.68;;;;;;;8.07;100.00;99648.03;5072583;28;20471;-76
2022/02/18 09:07:20;;;;;;;20.45;5.65;;;;;;;8.12;100.00;99645.38;5071411;28;20074;-75
2022/02/18 09:09:46;;;;;;;18.52;5.30;;;;;;;8.17;100.00;99633.06;5073406;28;20013;-75
2022/02/18 09:12:11;;;;;;;17.52;5.15;;;;;;;8.22;100.00;99620.75;5073748;28;20028;-76
2022/02/18 09:14:37;;;;;;;17.42;4.70;;;;;;;8.28;100.00;99615.44;5073612;28;20033;-74
2022/02/18 09:17:02;;;;;;;16.65;4.57;;;;;;;8.37;100.00;99615.41;5073219;28;20498;-75
2022/02/18 09:19:27;;;;;;;18.35;5.03;;;;;;;8.42;100.00;99603.94;5072958;28;20029;-75
2022/02/18 09:21:53;;;;;;;15.77;4.28;;;;;;;8.50;100.00;99599.53;5073068;28;20024;-75
2022/02/18 09:24:18;;;;;;;17.05;4.60;;;;;;;8.58;100.00;99589.81;5072785;28;20465;-75
2022/02/18 09:26:44;;;;;;;15.60;4.20;;;;;;;8.59;100.00;99588.94;5073493;28;20114;-75
2022/02/18 09:29:09;;;;;;;16.25;4.30;;;;;;;8.61;100.00;99600.34;5073090;28;20493;-75
2022/02/18 09:31:36;;;;;;;14.95;4.35;;;;;;;8.67;100.00;99584.47;5073000;28;20021;-75
2022/02/18 09:34:02;;;;;;;15.15;4.03;;;;;;;8.76;100.00;99578.25;5071218;28;20204;-75
2022/02/18 09:36:29;;;;;;;13.98;3.90;;;;;;;8.88;100.00;99587.81;5072805;28;20111;-75
2022/02/18 09:38:54;;;;;;;13.30;3.70;;;;;;;8.87;100.00;99568.50;5072091;28;20044;-75
2022/02/18 09:41:19;;;;;;;15.52;3.95;;;;;;;8.84;100.00;99578.19;5072771;28;20545;-75
2022/02/18 09:43:46;;;;;;;14.80;3.80;;;;;;;8.87;100.00;99586.94;5072909;28;20028;-75
2022/02/18 09:46:12;;;;;;;12.18;3.47;;;;;;;8.96;100.00;99582.50;5072613;28;20432;-76
2022/02/18 09:48:38;;;;;;;14.40;3.90;;;;;;;8.98;100.00;99586.84;5071390;28;20136;-75
2022/02/18 09:51:04;;;;;;;14.15;4.00;;;;;;;9.02;100.00;99566.63;5072739;28;20024;-75
2022/02/18 09:53:29;;;;;;;14.43;3.42;;;;;;;9.02;100.00;99556.06;5072820;28;20467;-75
2022/02/18 09:55:56;;;;;;;12.43;3.70;;;;;;;9.03;100.00;99548.16;5072410;28;20074;-75
2022/02/18 09:58:23;;;;;;;11.60;3.60;;;;;;;9.06;100.00;99557.78;5072616;28;20085;-75
2022/02/18 10:00:49;;;;;;;11.32;3.50;;;;;;;9.17;100.00;99560.31;5072669;28;20078;-75
2022/02/18 10:03:14;;;;;;;10.80;3.25;;;;;;;9.26;100.00;99528.56;5072627;28;20024;-75
2022/02/18 10:05:40;;;;;;;12.02;3.50;;;;;;;9.31;100.00;99494.25;5070456;28;20040;-75
2022/02/18 10:08:05;;;;;;;11.13;3.25;;;;;;;9.45;100.00;99496.69;5069465;28;20021;-75
2022/02/18 10:10:32;;;;;;;12.13;3.42;;;;;;;9.50;100.00;99510.72;5070587;28;20111;-74
2022/02/18 10:12:57;;;;;;;10.68;3.40;;;;;;;9.55;100.00;99506.25;5071181;28;20517;-75
2022/02/18 10:15:23;;;;;;;12.20;3.47;;;;;;;9.59;100.00;99503.53;5070647;28;20048;-77
2022/02/18 10:17:48;;;;;;;12.48;3.53;;;;;;;9.59;100.00;99500.91;5071018;28;20024;-75
2022/02/18 10:20:23;;;;;;;9.95;3.22;;;;;;;9.67;100.00;99502.56;5070648;28;20486;-77
2022/02/18 10:23:05;;;;;;;9.95;3.20;;;;;;;9.66;100.00;99477.97;5068389;28;20025;-77
2022/02/18 10:25:32;;;;;;;9.00;3.22;;;;;;;9.73;100.00;99497.22;5068762;28;20028;-72
2022/02/18 10:27:58;;;;;;;9.38;3.10;;;;;;;9.81;100.00;99468.94;5069301;28;20039;-72
2022/02/18 10:30:26;;;;;;;10.88;3.10;;;;;;;9.81;100.00;99455.75;5070630;28;20020;-73
2022/02/18 10:32:53;;;;;;;8.05;2.88;;;;;;;9.95;100.00;99445.88;5070262;28;20024;-76
2022/02/18 10:35:22;;;;;;;7.97;3.08;;;;;;;9.99;100.00;99451.97;5070770;28;20016;-79
2022/02/18 10:37:54;;;;;;;9.93;2.70;;;;;;;10.18;100.00;99430.53;5071607;28;20054;-80
2022/02/18 10:40:21;;;;;;;5.22;2.58;;;;;;;10.23;100.00;99441.91;5070784;28;20025;-75
2022/02/18 10:42:49;;;;;;;10.10;2.90;;;;;;;10.27;100.00;99427.78;5069892;28;20426;-78
2022/02/18 10:45:21;;;;;;;7.55;2.42;;;;;;;10.28;100.00;99414.53;5071250;28;20077;-77
2022/02/18 10:47:49;;;;;;;7.15;2.50;;;;;;;10.36;100.00;99418.84;5070057;28;20036;-82
2022/02/18 10:50:17;;;;;;;6.53;2.60;;;;;;;10.43;100.00;99400.22;5069495;28;20021;-78
2022/02/18 10:53:03;;;;;;;7.97;2.30;;;;;;;10.52;100.00;99393.03;5072027;28;20085;-78
2022/02/18 10:55:28;;;;;;;4.60;2.30;;;;;;;10.57;100.00;99401.72;5070367;28;20036;-77
2022/02/18 10:58:04;;;;;;;5.50;2.40;;;;;;;10.46;100.00;99379.03;5071057;28;20081;-76
2022/02/18 11:00:29;;;;;;;6.00;2.40;;;;;;;10.26;100.00;99384.63;5070521;28;20432;-76
2022/02/18 11:02:57;;;;;;;7.55;2.50;;;;;;;10.27;100.00;99373.16;5070864;28;20111;-76
2022/02/18 11:05:30;;;;;;;4.68;2.30;;;;;;;10.23;100.00;99360.06;5071004;28;20486;-77
2022/02/18 11:07:56;;;;;;;7.53;2.55;;;;;;;10.23;100.00;99391.75;5070008;28;20119;-77
2022/02/18 11:10:35;;;;;;;5.55;2.45;;;;;;;10.24;100.00;99361.81;5070799;28;20467;-75
2022/02/18 11:13:01;;;;;;;5.63;2.22;;;;;;;10.39;100.00;99345.69;5069897;28;20031;-76